Impacts TAF Board
For situational awareness. Not to be used for flight planning purposes.
IDs:

KJFK - New York/Kennedy Int, NY, US

Issued at 2106 UTC 20 Jun 2019
Updated at 2143 UTC 20 Jun 2019
Potential Impact None Slight Moderate High
Time<<21/10Z 21/11Z 21/12Z 21/13Z 21/14Z 21/15Z 21/16Z 21/17Z 21/18Z 21/19Z 21/20Z 21/21Z 21/22Z>>
Type PRVL PRVL PRVL PRVL PRVL PRVL PRVL PRVL PRVL PRVL PRVL PRVL PRVL
VIS 5 5 5 5 5 >6 >6 >6 >6 >6 >6 >6 >6
CIG 40 40 40 40 40 -- -- -- -- -- -- -- --
Cover BKN BKN BKN BKN BKN SCT SCT SCT SCT SCT SCT SCT SCT
FltCat MVFR MVFR MVFR MVFR MVFR VFR VFR VFR VFR VFR VFR VFR VFR
WX -SHRA -SHRA -SHRA -SHRA -SHRA -- -- -- -- -- -- -- --
WDir 290 290 290 290 290 320 320 320 320 320 320 320 320
WSpd 8 8 8 8 8 14 14 14 14 14 14 14 14
WGst -- -- -- -- -- 24 24 24 24 24 24 24 24
Raw TAF
KJFK 202106Z 2021/2124 16005KT 5SM SHRA VCTS BKN006 OVC015CB
  TEMPO 2021/2022 22015G25KT 1SM +TSRA SCT015CB
  FM210000 20005KT 5SM -SHRA SCT015 BKN040
  FM210400 23005KT P6SM VCTS BKN040CB
  FM210700 25006KT 5SM -SHRA BKN040
  FM211000 29008KT 5SM -SHRA BKN040
  FM211500 32014G24KT P6SM SCT120


METAR Board
Radar Display
Forecast Discussion
For situational awareness. Not to be used for flight planning purposes.